Time;durP1;ratioP1;P1;durP2;ratioP2;P2;SDS_P1;SDS_P2;PMS_P1;PMS_P2;Temp;Humidity;BMP_temperature;BMP_pressure;BME280_temperature;BME280_humidity;BME280_pressure;Samples;Min_cycle;Max_cycle;Signal;HPM_P1;HPM_P2
2021/07/27 00:00:06;;;;;;;29.18;14.93;;;;;;;20.25;74.24;98579.24;2210277;80;20968;-58
2021/07/27 00:03:08;;;;;;;29.12;14.45;;;;;;;20.23;74.08;98584.73;2188425;81;21032;-59
2021/07/27 00:06:08;;;;;;;29.65;15.20;;;;;;;20.34;73.69;98590.27;2210674;81;21026;-58
2021/07/27 00:09:09;;;;;;;28.10;15.43;;;;;;;20.44;73.62;98584.78;2210286;81;21011;-59
2021/07/27 00:12:10;;;;;;;30.48;16.25;;;;;;;20.48;73.47;98589.30;2210736;81;20997;-59
2021/07/27 00:15:10;;;;;;;27.65;14.05;;;;;;;20.50;73.47;98588.63;2215375;80;21004;-59
2021/07/27 00:18:11;;;;;;;27.95;14.73;;;;;;;20.51;73.45;98587.12;2220698;80;21023;-59
2021/07/27 00:21:12;;;;;;;29.02;13.88;;;;;;;20.53;73.39;98585.63;2220682;80;21051;-58
2021/07/27 00:24:12;;;;;;;27.17;13.75;;;;;;;20.53;73.59;98570.50;2220196;80;21024;-59
2021/07/27 00:27:13;;;;;;;27.67;14.00;;;;;;;20.56;73.31;98561.36;2220574;80;21051;-59
2021/07/27 00:30:13;;;;;;;27.42;14.30;;;;;;;20.58;73.10;98568.67;2220671;80;21482;-59
2021/07/27 00:33:14;;;;;;;29.45;14.07;;;;;;;20.53;73.21;98565.65;2220515;80;21075;-59
2021/07/27 00:36:14;;;;;;;29.25;13.68;;;;;;;20.51;73.35;98554.34;2220795;80;20981;-59
2021/07/27 00:39:15;;;;;;;30.77;15.25;;;;;;;20.46;73.39;98552.17;2220926;80;21012;-59
2021/07/27 00:42:16;;;;;;;33.90;16.70;;;;;;;20.45;73.52;98550.50;2220680;80;20977;-60
2021/07/27 00:45:17;;;;;;;27.17;14.18;;;;;;;20.44;73.51;98555.48;2220529;80;21053;-62
2021/07/27 00:48:18;;;;;;;29.05;15.28;;;;;;;20.41;73.58;98552.67;2220784;80;21020;-59
2021/07/27 00:51:19;;;;;;;32.95;15.80;;;;;;;20.29;74.36;98551.81;2220575;80;21052;-58
2021/07/27 00:54:19;;;;;;;27.85;14.75;;;;;;;20.18;73.62;98547.60;2220603;80;20985;-61
2021/07/27 00:57:19;;;;;;;30.37;15.30;;;;;;;20.13;74.08;98548.09;2220644;80;20937;-59
2021/07/27 01:00:20;;;;;;;27.27;14.30;;;;;;;20.02;74.39;98544.39;2220604;80;20929;-59
2021/07/27 01:03:20;;;;;;;29.98;14.40;;;;;;;19.91;74.50;98545.50;2220704;80;21424;-59
2021/07/27 01:06:21;;;;;;;29.50;14.78;;;;;;;19.83;74.40;98554.80;2220610;80;20949;-59
2021/07/27 01:09:21;;;;;;;28.25;15.03;;;;;;;19.83;74.52;98554.30;2220608;80;20963;-59
2021/07/27 01:12:21;;;;;;;29.75;16.32;;;;;;;19.85;74.62;98542.16;2220885;80;20982;-59
2021/07/27 01:15:23;;;;;;;30.40;14.60;;;;;;;19.88;74.71;98538.70;2215969;80;21012;-59
2021/07/27 01:18:28;;;;;;;27.27;13.68;;;;;;;19.91;75.27;98537.52;2210453;81;21052;-59
2021/07/27 01:39:41;;;;;;;26.70;12.63;;;;;;;20.17;74.40;98504.66;2188801;81;20996;-59
2021/07/27 01:42:42;;;;;;;25.82;12.18;;;;;;;20.20;74.46;98506.98;2210389;81;21000;-58
2021/07/27 01:45:42;;;;;;;24.67;12.18;;;;;;;20.21;74.43;98500.67;2210309;81;21251;-58
2021/07/27 01:48:43;;;;;;;26.85;12.93;;;;;;;20.23;74.53;98497.38;2210557;81;20977;-58
2021/07/27 01:51:45;;;;;;;29.98;15.72;;;;;;;20.25;74.54;98494.03;2210223;81;21036;-59
2021/07/27 01:54:51;;;;;;;30.40;14.63;;;;;;;20.27;74.59;98500.52;2210319;81;21036;-62
2021/07/27 01:57:48;;;;;;;27.55;14.18;;;;;;;20.30;74.67;98512.17;2189088;81;21016;-59
2021/07/27 02:00:49;;;;;;;29.92;14.43;;;;;;;20.32;74.50;98518.19;2210405;81;21020;-59
2021/07/27 02:03:49;;;;;;;26.85;13.30;;;;;;;20.37;74.48;98528.69;2210479;81;21065;-59
2021/07/27 02:06:50;;;;;;;28.20;13.10;;;;;;;20.40;74.57;98537.68;2210479;81;21000;-59
2021/07/27 02:09:57;;;;;;;26.23;12.45;;;;;;;20.41;74.67;98534.50;2210446;81;21057;-59
2021/07/27 02:13:00;;;;;;;29.23;12.55;;;;;;;20.38;74.64;98534.84;2188741;81;20973;-59
2021/07/27 02:15:55;;;;;;;27.13;13.22;;;;;;;20.36;75.03;98537.66;2181613;81;21485;-59
2021/07/27 02:18:55;;;;;;;25.70;13.35;;;;;;;20.38;74.97;98540.16;2140351;83;21021;-59
2021/07/27 02:21:56;;;;;;;27.55;14.65;;;;;;;20.33;75.22;98535.33;2201571;81;21033;-59
2021/07/27 02:24:56;;;;;;;27.90;13.85;;;;;;;20.32;75.14;98543.48;2140339;83;20945;-59
2021/07/27 02:27:56;;;;;;;25.72;13.90;;;;;;;20.29;75.33;98536.65;2201452;81;21014;-59
2021/07/27 02:30:59;;;;;;;29.98;13.85;;;;;;;20.34;75.43;98543.67;2140183;83;21479;-59
2021/07/27 02:34:00;;;;;;;29.12;12.88;;;;;;;20.35;75.28;98555.97;2201097;81;21069;-59
2021/07/27 02:37:00;;;;;;;26.60;13.95;;;;;;;20.37;75.56;98569.12;2140578;83;21491;-59
2021/07/27 02:40:01;;;;;;;28.38;14.00;;;;;;;20.43;75.55;98579.14;2201509;81;20962;-58
2021/07/27 02:43:02;;;;;;;26.48;13.93;;;;;;;20.38;75.36;98581.45;2140434;83;21069;-59
2021/07/27 02:46:03;;;;;;;26.27;12.50;;;;;;;20.36;75.74;98582.12;2201610;81;21016;-59
2021/07/27 02:49:03;;;;;;;28.05;12.85;;;;;;;20.30;75.75;98578.27;2140481;83;21037;-59
2021/07/27 02:52:04;;;;;;;24.80;10.98;;;;;;;20.28;75.93;98581.58;2201507;81;21483;-58
2021/07/27 02:55:04;;;;;;;23.98;11.08;;;;;;;20.30;76.08;98589.41;2140478;83;21040;-58
2021/07/27 02:58:05;;;;;;;26.82;11.60;;;;;;;20.29;76.09;98589.91;2201780;81;20985;-59
2021/07/27 03:01:05;;;;;;;25.72;11.22;;;;;;;20.32;76.14;98588.77;2140617;83;21056;-60
2021/07/27 03:04:06;;;;;;;25.27;11.45;;;;;;;20.34;76.16;98589.42;2201656;81;20934;-58
2021/07/27 03:07:06;;;;;;;25.68;11.60;;;;;;;20.37;75.99;98590.42;2201512;81;20965;-59
2021/07/27 03:13:09;;;;;;;26.10;11.50;;;;;;;20.31;76.16;98585.75;2122032;83;20981;-59
2021/07/27 03:16:10;;;;;;;24.70;11.78;;;;;;;20.28;76.12;98574.09;2206722;80;21524;-59
2021/07/27 03:19:10;;;;;;;25.32;11.30;;;;;;;20.24;76.51;98576.23;2210478;81;21009;-58
2021/07/27 03:22:11;;;;;;;23.35;10.98;;;;;;;20.23;76.43;98577.25;2210436;81;21128;-58
2021/07/27 03:25:14;;;;;;;25.52;10.38;;;;;;;20.24;76.59;98581.08;2210713;81;20977;-59
2021/07/27 03:28:14;;;;;;;25.70;10.60;;;;;;;20.30;76.69;98581.41;2188776;81;21028;-58
2021/07/27 03:31:14;;;;;;;25.00;10.18;;;;;;;20.35;76.64;98585.77;2210666;81;20961;-59
2021/07/27 03:34:15;;;;;;;23.75;10.45;;;;;;;20.39;76.54;98577.28;2210447;81;21033;-59
2021/07/27 03:37:15;;;;;;;25.52;10.90;;;;;;;20.35;76.68;98575.94;2210574;81;20997;-58
2021/07/27 03:40:16;;;;;;;24.95;10.53;;;;;;;20.34;76.77;98576.95;2210523;81;21017;-59
2021/07/27 03:43:16;;;;;;;23.15;9.88;;;;;;;20.32;76.86;98574.11;2210117;81;20996;-59
2021/07/27 03:46:16;;;;;;;24.98;9.70;;;;;;;20.30;76.87;98570.28;2210376;81;20953;-59
2021/07/27 03:49:17;;;;;;;23.90;9.70;;;;;;;20.31;76.83;98566.60;2210255;81;21480;-58
2021/07/27 03:52:17;;;;;;;25.57;10.10;;;;;;;20.33;77.16;98563.77;2210240;81;20980;-58
2021/07/27 03:55:18;;;;;;;23.42;9.30;;;;;;;20.35;77.14;98562.63;2210445;80;20981;-59
2021/07/27 03:58:18;;;;;;;23.80;10.35;;;;;;;20.34;77.17;98556.98;2210648;81;21005;-58
2021/07/27 04:01:19;;;;;;;24.77;9.73;;;;;;;20.38;77.35;98560.14;2210369;81;21064;-59
2021/07/27 04:04:19;;;;;;;27.52;11.12;;;;;;;20.42;77.25;98571.62;2210389;81;21001;-59
2021/07/27 04:07:20;;;;;;;25.50;10.72;;;;;;;20.46;77.36;98580.62;2210289;81;21486;-59
2021/07/27 04:10:20;;;;;;;24.72;9.98;;;;;;;20.46;77.19;98573.48;2210165;81;21011;-58
2021/07/27 04:13:20;;;;;;;22.10;9.85;;;;;;;20.44;77.45;98562.14;2210530;81;21004;-58
2021/07/27 04:16:21;;;;;;;23.60;9.70;;;;;;;20.39;77.61;98547.98;2210291;80;21057;-58
2021/07/27 04:19:21;;;;;;;29.50;9.70;;;;;;;20.43;77.61;98543.18;2210447;81;20981;-58
2021/07/27 04:22:22;;;;;;;22.80;9.05;;;;;;;20.43;77.74;98537.86;2210345;81;20993;-62
2021/07/27 04:25:22;;;;;;;21.85;8.78;;;;;;;20.43;77.66;98535.19;2210373;81;21347;-58
2021/07/27 04:28:23;;;;;;;22.60;9.60;;;;;;;20.44;77.66;98536.84;2210282;81;21499;-59
2021/07/27 04:31:23;;;;;;;23.85;8.95;;;;;;;20.49;77.64;98533.20;2210365;81;21495;-60
2021/07/27 04:34:23;;;;;;;23.40;10.30;;;;;;;20.51;77.58;98528.52;2210357;81;20984;-59
2021/07/27 04:37:24;;;;;;;23.90;10.38;;;;;;;20.53;77.49;98534.54;2210289;81;21005;-59
2021/07/27 04:40:25;;;;;;;25.80;12.47;;;;;;;20.55;77.48;98542.36;2210304;81;21015;-59
2021/07/27 04:43:26;;;;;;;32.63;15.32;;;;;;;20.60;77.29;98552.01;2210761;81;21008;-59
2021/07/27 04:46:26;;;;;;;37.80;19.87;;;;;;;20.59;77.43;98570.34;2210371;81;21045;-58
2021/07/27 04:49:27;;;;;;;29.30;13.53;;;;;;;20.54;77.32;98572.66;2210414;81;21484;-59
2021/07/27 04:52:28;;;;;;;29.77;13.53;;;;;;;20.53;77.29;98570.50;2210627;81;20945;-59
2021/07/27 04:55:28;;;;;;;24.80;10.23;;;;;;;20.58;77.40;98578.81;2210617;81;20973;-58
2021/07/27 04:58:29;;;;;;;24.15;10.10;;;;;;;20.67;77.45;98577.54;2210352;81;20969;-58
2021/07/27 05:01:29;;;;;;;24.47;9.63;;;;;;;20.76;77.29;98580.05;2210300;81;20989;-59
2021/07/27 05:04:30;;;;;;;27.17;10.40;;;;;;;20.92;77.18;98587.23;2210038;81;21046;-59
2021/07/27 05:07:30;;;;;;;32.85;22.32;;;;;;;21.04;76.88;98586.39;2210382;81;21459;-59
2021/07/27 05:10:31;;;;;;;33.05;20.43;;;;;;;21.21;76.91;98585.07;2210434;81;20957;-59
2021/07/27 05:13:31;;;;;;;35.60;22.20;;;;;;;21.37;76.82;98581.04;2210346;81;21021;-59
2021/07/27 05:16:32;;;;;;;35.13;21.52;;;;;;;21.53;76.45;98578.88;2215731;80;21027;-60
2021/07/27 05:19:32;;;;;;;27.60;13.65;;;;;;;21.73;76.26;98577.98;2220500;80;21032;-59
2021/07/27 05:22:34;;;;;;;27.13;13.32;;;;;;;22.21;75.75;98575.33;2220826;80;21506;-59
2021/07/27 05:25:34;;;;;;;27.32;12.13;;;;;;;22.75;75.05;98580.38;2220635;80;21532;-59
2021/07/27 05:28:35;;;;;;;22.77;8.88;;;;;;;23.16;73.90;98579.58;2221016;80;20953;-60
2021/07/27 05:31:35;;;;;;;21.50;8.57;;;;;;;23.27;72.69;98590.86;2220847;80;21007;-58
2021/07/27 05:34:35;;;;;;;23.60;8.57;;;;;;;23.26;72.24;98597.20;2220983;80;20968;-61
2021/07/27 05:37:36;;;;;;;22.50;8.23;;;;;;;23.03;72.05;98607.42;2220871;80;21003;-58
2021/07/27 05:40:36;;;;;;;20.93;8.23;;;;;;;22.75;72.09;98617.80;2220781;80;21004;-59
2021/07/27 05:43:37;;;;;;;23.30;8.80;;;;;;;22.56;72.60;98625.27;2220837;80;20961;-58
2021/07/27 05:46:37;;;;;;;21.33;8.53;;;;;;;22.21;73.13;98644.77;2220743;80;21530;-59
2021/07/27 05:49:39;;;;;;;23.98;8.90;;;;;;;21.92;74.13;98665.38;2220671;80;21000;-59
2021/07/27 05:52:39;;;;;;;26.23;9.47;;;;;;;21.65;75.32;98667.44;2220742;80;21065;-60
2021/07/27 05:55:40;;;;;;;24.00;9.68;;;;;;;21.53;76.05;98659.43;2220756;80;21063;-58
2021/07/27 05:58:40;;;;;;;24.92;10.45;;;;;;;21.44;76.24;98662.06;2220805;80;21016;-59
2021/07/27 06:01:41;;;;;;;23.42;10.60;;;;;;;21.39;77.05;98669.75;2220479;80;21494;-62
2021/07/27 06:04:42;;;;;;;24.82;11.38;;;;;;;21.37;77.23;98674.91;2220957;80;20993;-59
2021/07/27 06:07:43;;;;;;;32.13;15.93;;;;;;;21.40;77.55;98666.57;2220701;80;20979;-64
2021/07/27 06:10:43;;;;;;;31.10;15.78;;;;;;;21.50;77.29;98668.56;2220945;80;21003;-59
2021/07/27 06:13:43;;;;;;;31.90;15.90;;;;;;;21.68;76.72;98659.57;2221441;80;21004;-63
2021/07/27 06:16:44;;;;;;;30.02;17.02;;;;;;;21.86;76.23;98661.54;2199341;80;20984;-61
2021/07/27 06:19:44;;;;;;;33.42;18.00;;;;;;;21.98;75.93;98664.71;2207433;81;20953;-59
2021/07/27 06:22:45;;;;;;;31.37;17.77;;;;;;;22.08;75.30;98670.69;2188900;81;21123;-61
2021/07/27 06:25:45;;;;;;;33.10;17.27;;;;;;;22.17;75.45;98665.30;2127885;84;21013;-67
2021/07/27 06:28:46;;;;;;;30.93;16.47;;;;;;;22.43;75.34;98675.77;2179064;81;21542;-61
2021/07/27 06:31:46;;;;;;;33.87;18.40;;;;;;;22.83;74.80;98677.91;2208558;81;21443;-63
2021/07/27 06:34:47;;;;;;;30.90;17.27;;;;;;;23.22;72.28;98660.14;2187350;81;21008;-62
2021/07/27 06:37:48;;;;;;;30.67;18.93;;;;;;;23.26;71.74;98674.80;2128080;84;21024;-61
2021/07/27 06:40:48;;;;;;;33.60;19.77;;;;;;;23.23;71.39;98676.49;2172287;82;20988;-59
2021/07/27 06:43:49;;;;;;;33.97;19.53;;;;;;;23.01;70.98;98695.86;2127844;84;20957;-63
2021/07/27 06:46:49;;;;;;;36.17;19.67;;;;;;;22.87;71.55;98682.39;2193588;81;20949;-58
2021/07/27 06:49:49;;;;;;;33.53;20.33;;;;;;;23.11;70.64;98675.57;2210508;81;21016;-64
2021/07/27 06:52:50;;;;;;;34.00;21.17;;;;;;;23.39;68.91;98675.53;2210054;81;21673;-60
2021/07/27 06:55:50;;;;;;;33.47;18.03;;;;;;;23.22;69.84;98681.02;2210548;81;21504;-68
2021/07/27 06:58:51;;;;;;;31.90;19.93;;;;;;;23.23;70.34;98683.19;2210635;81;21258;-60
2021/07/27 07:01:51;;;;;;;35.07;19.33;;;;;;;22.95;70.53;98689.86;2198805;81;21088;-63
2021/07/27 07:04:52;;;;;;;32.57;19.87;;;;;;;22.79;72.14;98685.95;2203721;81;21052;-64
2021/07/27 07:07:52;;;;;;;34.50;21.13;;;;;;;22.61;73.73;98691.55;2192731;81;21094;-59
2021/07/27 07:10:53;;;;;;;39.87;21.63;;;;;;;22.51;73.88;98698.42;2127701;84;21019;-66
2021/07/27 07:13:53;;;;;;;36.27;20.53;;;;;;;22.36;73.99;98689.49;2172330;82;21534;-63
2021/07/27 07:16:54;;;;;;;34.10;20.00;;;;;;;22.23;74.10;98696.69;2132070;83;21563;-65
2021/07/27 07:19:54;;;;;;;38.07;21.77;;;;;;;22.24;75.05;98699.18;2198041;80;20992;-60
2021/07/27 07:22:54;;;;;;;35.50;22.10;;;;;;;22.31;75.29;98697.48;2221069;80;20997;-62
2021/07/27 07:25:55;;;;;;;35.23;20.40;;;;;;;22.51;73.88;98693.59;2220897;80;20973;-59
2021/07/27 07:28:55;;;;;;;34.70;20.97;;;;;;;22.53;73.98;98693.77;2220958;80;20953;-61
2021/07/27 07:31:56;;;;;;;35.17;22.50;;;;;;;22.45;74.10;98692.45;2220709;80;20984;-59
2021/07/27 07:34:56;;;;;;;33.90;22.33;;;;;;;22.27;73.47;98680.64;2220904;80;21494;-61
2021/07/27 07:37:57;;;;;;;36.10;22.37;;;;;;;22.12;73.99;98672.02;2221075;80;21453;-59
2021/07/27 07:40:57;;;;;;;38.78;22.75;;;;;;;22.05;74.26;98667.51;2201321;80;21011;-61
2021/07/27 07:43:57;;;;;;;36.70;21.80;;;;;;;21.98;75.20;98673.55;2202696;80;20960;-59
2021/07/27 07:46:58;;;;;;;35.43;22.77;;;;;;;22.03;74.93;98680.21;2215968;80;21037;-59
2021/07/27 07:50:00;;;;;;;37.00;22.50;;;;;;;22.15;75.32;98686.36;2217925;80;20940;-67
2021/07/27 07:53:01;;;;;;;37.13;23.62;;;;;;;22.12;74.16;98680.50;2206376;80;21035;-60
2021/07/27 07:56:01;;;;;;;37.20;24.23;;;;;;;22.21;74.46;98687.51;2213476;80;20985;-61
2021/07/27 07:59:02;;;;;;;35.90;23.10;;;;;;;22.37;75.31;98681.30;2201869;80;20983;-61
2021/07/27 08:02:02;;;;;;;38.13;22.23;;;;;;;22.42;74.69;98687.45;2182348;82;21024;-69
2021/07/27 08:05:03;;;;;;;37.38;23.27;;;;;;;22.40;73.66;98700.98;2181757;82;21051;-74
2021/07/27 08:08:04;;;;;;;36.48;23.32;;;;;;;22.38;73.73;98707.50;2182279;82;21470;-76
2021/07/27 08:11:04;;;;;;;38.83;25.30;;;;;;;22.53;74.44;98711.13;2182239;82;21594;-62
2021/07/27 08:14:05;;;;;;;40.47;24.63;;;;;;;22.73;74.94;98714.22;2182412;82;20948;-66
2021/07/27 08:17:05;;;;;;;36.53;23.97;;;;;;;22.87;75.22;98721.16;2185066;80;20955;-70
2021/07/27 08:20:05;;;;;;;37.63;25.03;;;;;;;22.95;74.48;98729.14;2189196;81;21003;-60
2021/07/27 08:23:06;;;;;;;36.43;24.93;;;;;;;23.28;74.18;98730.31;2189134;81;21018;-63
2021/07/27 08:26:07;;;;;;;39.10;25.03;;;;;;;23.66;73.68;98730.34;2189177;81;20971;-70
2021/07/27 08:29:07;;;;;;;35.13;24.40;;;;;;;23.83;72.67;98739.92;2213217;80;20974;-71
2021/07/27 08:32:08;;;;;;;37.13;25.30;;;;;;;24.13;72.22;98739.16;2212099;80;20916;-74
2021/07/27 08:35:08;;;;;;;34.33;23.83;;;;;;;24.57;71.06;98734.33;2208887;80;20930;-75
2021/07/27 08:38:08;;;;;;;35.97;25.70;;;;;;;24.93;69.25;98734.90;2213657;80;20962;-60
2021/07/27 08:41:09;;;;;;;38.33;25.17;;;;;;;25.72;70.00;98731.38;2203202;80;21445;-65
2021/07/27 08:44:10;;;;;;;34.53;24.03;;;;;;;25.92;67.63;98738.78;2188880;81;21444;-72
2021/07/27 08:47:10;;;;;;;37.10;25.97;;;;;;;25.53;66.54;98737.39;2204746;80;20921;-60
2021/07/27 08:50:10;;;;;;;39.00;26.23;;;;;;;25.39;68.43;98752.05;2227696;80;21016;-61
2021/07/27 08:53:11;;;;;;;36.93;24.23;;;;;;;25.65;67.71;98751.98;2193357;80;20952;-62
2021/07/27 08:56:11;;;;;;;37.57;23.90;;;;;;;25.79;68.07;98752.08;2143911;83;20956;-62
2021/07/27 08:59:12;;;;;;;35.60;24.40;;;;;;;26.44;65.51;98752.80;2108050;84;21440;-60
2021/07/27 09:02:12;;;;;;;33.87;23.10;;;;;;;26.32;62.70;98755.22;2143782;83;21589;-62
2021/07/27 09:05:14;;;;;;;33.65;22.58;;;;;;;26.29;64.82;98755.58;2107876;84;21030;-62
2021/07/27 09:08:15;;;;;;;34.13;23.85;;;;;;;26.22;64.03;98759.59;2096502;84;21212;-62
2021/07/27 09:11:16;;;;;;;35.20;24.17;;;;;;;26.20;64.76;98752.22;2148492;82;21074;-66
2021/07/27 09:14:16;;;;;;;34.33;23.90;;;;;;;26.08;63.76;98759.19;2117153;83;20980;-61
2021/07/27 09:17:17;;;;;;;35.47;25.07;;;;;;;26.03;63.72;98762.95;2106101;84;21040;-70
2021/07/27 09:20:17;;;;;;;33.10;22.20;;;;;;;25.88;65.35;98757.65;2151501;82;20996;-63
2021/07/27 09:23:18;;;;;;;33.27;21.80;;;;;;;26.18;62.58;98761.53;2178402;82;20961;-61
2021/07/27 09:26:21;;;;;;;34.93;23.17;;;;;;;26.14;62.83;98763.77;2175285;82;21004;-61
2021/07/27 09:29:23;;;;;;;31.33;21.33;;;;;;;26.31;64.06;98766.17;2142845;82;20972;-68
2021/07/27 09:32:23;;;;;;;37.15;21.00;;;;;;;26.49;62.38;98763.77;2154062;82;21503;-70
2021/07/27 09:35:23;;;;;;;31.63;21.33;;;;;;;26.52;63.25;98759.37;2181134;82;21090;-68
2021/07/27 09:38:25;;;;;;;29.80;20.60;;;;;;;26.94;62.27;98764.23;2180832;82;21654;-66
2021/07/27 09:41:26;;;;;;;32.30;22.02;;;;;;;27.24;61.73;98761.73;2181017;82;21059;-73
2021/07/27 09:44:27;;;;;;;31.37;21.23;;;;;;;27.49;61.60;98763.38;2181334;82;21451;-63
2021/07/27 09:47:27;;;;;;;30.87;19.73;;;;;;;27.37;60.63;98762.31;2181386;82;21487;-66
2021/07/27 09:50:27;;;;;;;38.13;24.43;;;;;;;27.39;60.25;98752.19;2180136;82;21803;-72
2021/07/27 09:53:28;;;;;;;30.57;19.20;;;;;;;27.52;60.43;98752.72;2147236;82;21656;-61
2021/07/27 09:56:28;;;;;;;28.33;17.50;;;;;;;27.52;60.76;98760.80;2142035;83;21710;-62
2021/07/27 09:59:29;;;;;;;26.77;16.43;;;;;;;27.46;59.36;98763.80;2181159;82;21004;-61
2021/07/27 10:02:30;;;;;;;28.50;16.80;;;;;;;27.71;58.30;98765.36;2136570;83;21325;-61
2021/07/27 10:05:30;;;;;;;24.03;14.67;;;;;;;27.97;57.71;98769.95;2157989;83;21047;-61
2021/07/27 10:08:31;;;;;;;25.53;14.80;;;;;;;28.05;55.77;98765.42;2156455;83;21011;-65
2021/07/27 10:11:31;;;;;;;25.23;15.33;;;;;;;28.01;56.89;98764.98;2144126;83;21043;-62
2021/07/27 10:14:32;;;;;;;26.20;14.17;;;;;;;27.42;57.38;98763.36;2108383;84;21001;-61
2021/07/27 10:17:32;;;;;;;25.30;14.97;;;;;;;27.21;58.08;98764.84;2137328;83;21124;-63
2021/07/27 10:20:32;;;;;;;25.87;14.07;;;;;;;27.49;57.46;98756.65;2172212;82;21570;-66
2021/07/27 10:23:34;;;;;;;25.20;14.10;;;;;;;27.47;58.64;98746.61;2127763;84;21565;-66
2021/07/27 10:26:35;;;;;;;25.17;13.62;;;;;;;27.47;57.72;98754.16;2176663;81;21023;-62
2021/07/27 10:29:35;;;;;;;27.13;13.43;;;;;;;27.89;56.57;98752.63;2198116;81;21001;-64
2021/07/27 10:32:36;;;;;;;23.83;13.05;;;;;;;28.47;56.90;98751.95;2208851;81;21578;-69
2021/07/27 10:35:37;;;;;;;24.30;12.13;;;;;;;28.94;56.74;98746.95;2209097;81;20999;-61
2021/07/27 10:38:37;;;;;;;23.57;12.43;;;;;;;29.36;53.19;98746.83;2208945;81;21008;-61
2021/07/27 10:41:38;;;;;;;23.63;12.30;;;;;;;29.07;51.39;98762.27;2209744;81;21032;-63
2021/07/27 10:44:38;;;;;;;25.63;13.23;;;;;;;28.48;52.73;98753.61;2210700;81;21330;-61
2021/07/27 10:47:38;;;;;;;23.23;12.17;;;;;;;28.00;52.98;98764.67;2209168;81;21460;-61
2021/07/27 10:50:39;;;;;;;23.03;12.40;;;;;;;28.08;55.66;98756.91;2193230;81;21384;-61
2021/07/27 10:53:40;;;;;;;24.23;12.75;;;;;;;28.09;54.85;98758.05;2203360;81;20992;-61
2021/07/27 10:56:41;;;;;;;23.40;12.17;;;;;;;27.89;53.79;98763.94;2127798;84;21065;-61
2021/07/27 10:59:41;;;;;;;24.20;11.80;;;;;;;28.20;54.92;98757.09;2172540;82;20941;-64
2021/07/27 11:02:42;;;;;;;22.98;12.15;;;;;;;28.37;52.61;98758.30;2127494;84;21507;-70
2021/07/27 11:05:43;;;;;;;22.80;11.57;;;;;;;28.26;53.95;98758.45;2180118;80;21051;-71
2021/07/27 11:08:43;;;;;;;23.20;11.97;;;;;;;28.17;54.51;98755.14;2209565;80;21052;-61
2021/07/27 11:11:44;;;;;;;22.90;12.17;;;;;;;28.56;53.37;98751.22;2208717;81;21052;-61
2021/07/27 11:14:45;;;;;;;23.38;12.70;;;;;;;28.96;52.71;98755.12;2210331;81;21718;-65
2021/07/27 11:17:46;;;;;;;23.87;12.20;;;;;;;29.02;52.89;98761.53;2214245;80;21493;-66
2021/07/27 11:20:46;;;;;;;23.22;11.78;;;;;;;29.56;51.97;98748.58;2220513;80;21008;-72
2021/07/27 11:23:47;;;;;;;21.77;11.70;;;;;;;30.08;52.19;98736.22;2220546;80;21001;-63
2021/07/27 11:26:47;;;;;;;21.83;11.13;;;;;;;30.46;50.39;98741.16;2220855;80;21001;-62
2021/07/27 11:29:47;;;;;;;21.37;11.07;;;;;;;30.34;47.49;98739.71;2220799;80;20977;-68
2021/07/27 11:32:48;;;;;;;22.40;11.23;;;;;;;29.90;49.36;98746.48;2220834;80;20962;-63
2021/07/27 11:35:48;;;;;;;22.43;10.97;;;;;;;29.86;48.06;98738.52;2220766;80;20961;-64
2021/07/27 11:38:49;;;;;;;20.90;10.00;;;;;;;30.22;49.69;98723.41;2219129;80;21014;-62
2021/07/27 11:41:49;;;;;;;20.07;9.73;;;;;;;30.62;47.79;98720.82;2220522;80;20978;-63
2021/07/27 11:44:50;;;;;;;22.63;9.20;;;;;;;30.76;43.31;98723.66;2220800;80;21485;-66
2021/07/27 11:47:50;;;;;;;20.10;8.90;;;;;;;30.56;45.75;98713.08;2220590;80;21013;-66
2021/07/27 11:50:51;;;;;;;19.63;8.47;;;;;;;30.92;42.55;98728.44;2220532;80;21044;-69
2021/07/27 11:53:51;;;;;;;20.07;8.30;;;;;;;30.72;43.23;98720.56;2220791;80;20972;-65
2021/07/27 11:56:51;;;;;;;19.90;9.50;;;;;;;30.66;44.92;98703.89;2220776;80;21035;-73
2021/07/27 11:59:54;;;;;;;18.33;7.60;;;;;;;30.92;44.53;98708.13;2220656;80;20988;-70
2021/07/27 12:02:54;;;;;;;21.27;7.83;;;;;;;30.95;41.41;98705.50;2190094;80;21024;-62
2021/07/27 12:05:56;;;;;;;20.20;8.10;;;;;;;31.21;42.47;98698.90;2220555;80;20934;-64
2021/07/27 12:08:57;;;;;;;21.00;10.28;;;;;;;31.35;43.59;98700.89;2220492;80;20992;-65
2021/07/27 12:11:57;;;;;;;19.90;7.93;;;;;;;31.20;44.64;98696.42;2220687;80;20968;-70
2021/07/27 12:14:58;;;;;;;19.80;7.97;;;;;;;31.11;42.19;98689.70;2220496;80;21044;-61
2021/07/27 12:17:58;;;;;;;17.83;6.00;;;;;;;31.14;42.75;98696.81;2216499;80;21060;-65
2021/07/27 12:20:59;;;;;;;17.17;6.37;;;;;;;31.16;40.47;98702.00;2209953;81;21487;-66
2021/07/27 12:23:59;;;;;;;18.93;7.17;;;;;;;31.07;39.98;98704.21;2210259;81;20939;-61
2021/07/27 12:27:00;;;;;;;16.37;6.90;;;;;;;30.91;39.03;98709.72;2210304;81;20949;-65
2021/07/27 12:30:00;;;;;;;16.50;6.78;;;;;;;30.93;39.79;98701.67;2210212;81;21226;-62
2021/07/27 12:33:01;;;;;;;16.57;6.60;;;;;;;30.67;40.89;98698.77;2210360;81;20969;-74
2021/07/27 12:36:01;;;;;;;18.20;7.00;;;;;;;30.53;41.94;98688.65;2210440;81;20973;-68
2021/07/27 12:39:03;;;;;;;19.85;7.05;;;;;;;30.11;41.87;98678.17;2209756;81;21816;-65
2021/07/27 12:42:03;;;;;;;16.90;6.23;;;;;;;30.61;42.22;98678.03;2207103;81;21023;-62
2021/07/27 12:45:04;;;;;;;17.63;6.63;;;;;;;30.56;41.13;98684.67;2172056;82;21058;-70
2021/07/27 12:48:04;;;;;;;18.50;7.40;;;;;;;30.01;42.65;98683.58;2172152;82;20972;-65
2021/07/27 12:51:05;;;;;;;20.03;6.70;;;;;;;29.54;43.98;98663.70;2172187;82;20956;-61
2021/07/27 12:54:05;;;;;;;17.50;6.87;;;;;;;29.51;44.31;98668.70;2172170;82;21490;-65
2021/07/27 12:57:05;;;;;;;19.80;7.07;;;;;;;29.72;44.34;98669.69;2172259;82;21518;-62
2021/07/27 13:00:06;;;;;;;18.63;6.67;;;;;;;29.93;44.82;98673.05;2172047;82;21055;-65
2021/07/27 13:03:06;;;;;;;17.73;6.57;;;;;;;30.09;43.56;98670.81;2172062;82;21063;-62
2021/07/27 13:06:07;;;;;;;18.37;6.47;;;;;;;30.41;43.21;98660.66;2171481;82;21071;-64
2021/07/27 13:09:08;;;;;;;16.87;6.20;;;;;;;30.72;41.80;98662.38;2172117;82;21068;-65
2021/07/27 13:12:08;;;;;;;15.73;6.13;;;;;;;30.52;41.26;98663.98;2171893;82;21080;-67
2021/07/27 13:15:09;;;;;;;18.30;6.60;;;;;;;30.73;41.70;98661.84;2172211;82;21522;-62
2021/07/27 13:18:09;;;;;;;18.42;7.10;;;;;;;30.86;42.75;98663.03;2175288;82;21015;-61
2021/07/27 13:21:10;;;;;;;15.67;5.80;;;;;;;30.91;41.29;98663.69;2181935;82;21004;-70
2021/07/27 13:24:10;;;;;;;15.15;5.53;;;;;;;30.94;40.79;98659.16;2182106;82;20976;-66
2021/07/27 13:27:11;;;;;;;15.18;5.50;;;;;;;30.91;40.86;98661.80;2181689;82;21500;-66
2021/07/27 13:30:12;;;;;;;13.20;5.07;;;;;;;31.07;39.24;98673.06;2181982;82;20962;-62
2021/07/27 13:33:12;;;;;;;17.53;5.30;;;;;;;31.16;37.27;98670.86;2182063;82;21291;-67
2021/07/27 13:36:13;;;;;;;14.57;5.77;;;;;;;31.29;39.66;98672.00;2182143;82;21000;-62
2021/07/27 13:39:14;;;;;;;13.88;5.15;;;;;;;31.55;38.95;98672.63;2181635;82;21087;-63
2021/07/27 13:42:14;;;;;;;15.67;5.80;;;;;;;31.67;38.64;98679.47;2182206;82;21107;-62
2021/07/27 13:45:14;;;;;;;12.93;5.20;;;;;;;31.60;37.87;98678.21;2182000;82;21538;-61
2021/07/27 13:48:15;;;;;;;16.52;5.50;;;;;;;31.37;39.08;98686.56;2182127;82;21028;-61
2021/07/27 13:51:15;;;;;;;13.98;5.50;;;;;;;30.97;38.26;98691.19;2181951;82;21027;-61
2021/07/27 13:54:16;;;;;;;16.10;6.10;;;;;;;30.85;39.17;98693.86;2182284;82;20960;-62
2021/07/27 13:57:16;;;;;;;15.87;5.57;;;;;;;31.22;38.99;98673.98;2181573;82;21035;-61
2021/07/27 14:00:19;;;;;;;17.67;5.47;;;;;;;31.85;39.32;98669.87;2182082;82;20964;-61
2021/07/27 14:03:19;;;;;;;16.50;5.67;;;;;;;31.99;38.48;98677.20;2181841;82;21328;-64
2021/07/27 14:06:20;;;;;;;15.13;5.37;;;;;;;32.11;38.07;98675.32;2181787;82;20941;-62
2021/07/27 14:09:20;;;;;;;13.53;5.30;;;;;;;32.30;38.12;98665.17;2182339;82;20980;-62
2021/07/27 14:12:20;;;;;;;16.30;5.90;;;;;;;32.25;35.85;98677.80;2182332;82;21714;-62